sensor_id;sensor_type;location;lat;lon;timestamp;temperature;humidity
2653;DHT22;1336;48.692;9.144;2022-09-17T05:00:15;12.70;97.20
2653;DHT22;1336;48.692;9.144;2022-09-17T05:01:08;12.70;97.20
2653;DHT22;1336;48.692;9.144;2022-09-17T05:01:58;12.70;97.20
2653;DHT22;1336;48.692;9.144;2022-09-17T05:02:52;12.70;97.20
2653;DHT22;1336;48.692;9.144;2022-09-17T05:03:43;12.70;97.20
2653;DHT22;1336;48.692;9.144;2022-09-17T05:04:35;12.70;97.20
2653;DHT22;1336;48.692;9.144;2022-09-17T05:05:26;12.70;97.20
2653;DHT22;1336;48.692;9.144;2022-09-17T05:06:17;12.70;97.20
2653;DHT22;1336;48.692;9.144;2022-09-17T05:07:08;12.70;97.20
2653;DHT22;1336;48.692;9.144;2022-09-17T05:08:00;12.70;97.20
2653;DHT22;1336;48.692;9.144;2022-09-17T05:08:51;12.70;97.20
2653;DHT22;1336;48.692;9.144;2022-09-17T05:09:43;12.60;97.20
2653;DHT22;1336;48.692;9.144;2022-09-17T05:10:33;12.60;97.20
2653;DHT22;1336;48.692;9.144;2022-09-17T05:11:25;12.60;97.20
2653;DHT22;1336;48.692;9.144;2022-09-17T05:12:16;12.60;97.20
2653;DHT22;1336;48.692;9.144;2022-09-17T05:13:07;12.60;97.20
2653;DHT22;1336;48.692;9.144;2022-09-17T05:13:58;12.60;97.20
2653;DHT22;1336;48.692;9.144;2022-09-17T05:14:50;12.60;97.20
2653;DHT22;1336;48.692;9.144;2022-09-17T05:15:42;12.50;97.20
2653;DHT22;1336;48.692;9.144;2022-09-17T05:16:34;12.50;97.20
2653;DHT22;1336;48.692;9.144;2022-09-17T05:17:25;12.50;97.20
2653;DHT22;1336;48.692;9.144;2022-09-17T05:18:16;12.50;97.20
2653;DHT22;1336;48.692;9.144;2022-09-17T05:19:07;12.50;97.20
2653;DHT22;1336;48.692;9.144;2022-09-17T05:19:59;12.50;97.20
2653;DHT22;1336;48.692;9.144;2022-09-17T05:20:49;12.50;97.20
2653;DHT22;1336;48.692;9.144;2022-09-17T05:21:41;12.50;97.20
2653;DHT22;1336;48.692;9.144;2022-09-17T05:22:32;12.50;97.20
2653;DHT22;1336;48.692;9.144;2022-09-17T05:23:23;12.50;97.20
2653;DHT22;1336;48.692;9.144;2022-09-17T05:24:14;12.50;97.20
2653;DHT22;1336;48.692;9.144;2022-09-17T05:25:06;12.50;97.20
2653;DHT22;1336;48.692;9.144;2022-09-17T05:25:57;12.50;97.20
2653;DHT22;1336;48.692;9.144;2022-09-17T05:26:50;12.50;97.20
2653;DHT22;1336;48.692;9.144;2022-09-17T05:27:41;12.50;97.20
2653;DHT22;1336;48.692;9.144;2022-09-17T05:28:32;12.50;97.20
2653;DHT22;1336;48.692;9.144;2022-09-17T05:29:23;12.50;97.20
2653;DHT22;1336;48.692;9.144;2022-09-17T05:30:15;12.50;97.20
2653;DHT22;1336;48.692;9.144;2022-09-17T05:31:07;12.60;97.20
2653;DHT22;1336;48.692;9.144;2022-09-17T05:31:59;12.60;97.20
2653;DHT22;1336;48.692;9.144;2022-09-17T05:32:58;12.60;97.20
2653;DHT22;1336;48.692;9.144;2022-09-17T05:33:49;12.60;97.20
2653;DHT22;1336;48.692;9.144;2022-09-17T05:34:40;12.60;97.20
2653;DHT22;1336;48.692;9.144;2022-09-17T05:35:32;12.60;97.20
2653;DHT22;1336;48.692;9.144;2022-09-17T05:36:25;12.60;97.20
2653;DHT22;1336;48.692;9.144;2022-09-17T05:37:16;12.60;97.20
2653;DHT22;1336;48.692;9.144;2022-09-17T05:38:07;12.60;97.20
2653;DHT22;1336;48.692;9.144;2022-09-17T05:38:59;12.60;97.20
2653;DHT22;1336;48.692;9.144;2022-09-17T05:39:49;12.60;97.20
2653;DHT22;1336;48.692;9.144;2022-09-17T05:40:41;12.60;97.20
2653;DHT22;1336;48.692;9.144;2022-09-17T05:41:33;12.60;97.20
2653;DHT22;1336;48.692;9.144;2022-09-17T05:42:25;12.60;97.20
2653;DHT22;1336;48.692;9.144;2022-09-17T05:43:16;12.60;97.20
2653;DHT22;1336;48.692;9.144;2022-09-17T05:44:08;12.60;97.20
2653;DHT22;1336;48.692;9.144;2022-09-17T05:44:59;12.60;97.20
2653;DHT22;1336;48.692;9.144;2022-09-17T05:45:50;12.60;97.20
2653;DHT22;1336;48.692;9.144;2022-09-17T05:46:45;12.60;97.20
2653;DHT22;1336;48.692;9.144;2022-09-17T05:47:37;12.60;97.20
2653;DHT22;1336;48.692;9.144;2022-09-17T05:48:28;12.50;97.20
2653;DHT22;1336;48.692;9.144;2022-09-17T05:49:20;12.50;97.20
2653;DHT22;1336;48.692;9.144;2022-09-17T05:50:10;12.50;97.20
2653;DHT22;1336;48.692;9.144;2022-09-17T05:51:03;12.50;97.20
2653;DHT22;1336;48.692;9.144;2022-09-17T05:51:54;12.50;97.20
2653;DHT22;1336;48.692;9.144;2022-09-17T05:52:45;12.50;97.20
2653;DHT22;1336;48.692;9.144;2022-09-17T05:53:36;12.50;97.20
2653;DHT22;1336;48.692;9.144;2022-09-17T05:54:28;12.50;97.20
2653;DHT22;1336;48.692;9.144;2022-09-17T05:55:20;12.40;97.20
2653;DHT22;1336;48.692;9.144;2022-09-17T05:56:12;12.40;97.20
2653;DHT22;1336;48.692;9.144;2022-09-17T05:57:03;12.40;97.20
2653;DHT22;1336;48.692;9.144;2022-09-17T05:57:55;12.30;97.20
2653;DHT22;1336;48.692;9.144;2022-09-17T05:58:46;12.30;97.20
2653;DHT22;1336;48.692;9.144;2022-09-17T05:59:38;12.40;97.20
2653;DHT22;1336;48.692;9.144;2022-09-17T06:00:29;12.30;97.20
2653;DHT22;1336;48.692;9.144;2022-09-17T06:01:21;12.30;97.20
2653;DHT22;1336;48.692;9.144;2022-09-17T06:02:13;12.30;97.20
2653;DHT22;1336;48.692;9.144;2022-09-17T06:03:05;12.30;97.20
2653;DHT22;1336;48.692;9.144;2022-09-17T06:03:56;12.30;97.20
2653;DHT22;1336;48.692;9.144;2022-09-17T06:04:47;12.30;97.20
2653;DHT22;1336;48.692;9.144;2022-09-17T06:05:39;12.30;97.20
2653;DHT22;1336;48.692;9.144;2022-09-17T06:06:31;12.30;97.20
2653;DHT22;1336;48.692;9.144;2022-09-17T06:07:22;12.30;97.20
2653;DHT22;1336;48.692;9.144;2022-09-17T06:08:13;12.30;97.20
2653;DHT22;1336;48.692;9.144;2022-09-17T06:09:05;12.30;97.20
2653;DHT22;1336;48.692;9.144;2022-09-17T06:09:56;12.30;97.20
2653;DHT22;1336;48.692;9.144;2022-09-17T06:10:47;12.30;97.20
2653;DHT22;1336;48.692;9.144;2022-09-17T06:11:39;12.30;97.20
2653;DHT22;1336;48.692;9.144;2022-09-17T06:12:30;12.30;97.20
2653;DHT22;1336;48.692;9.144;2022-09-17T06:13:21;12.30;97.20
2653;DHT22;1336;48.692;9.144;2022-09-17T06:14:12;12.30;97.20
2653;DHT22;1336;48.692;9.144;2022-09-17T06:15:05;12.30;97.20
2653;DHT22;1336;48.692;9.144;2022-09-17T06:15:56;12.30;97.20
2653;DHT22;1336;48.692;9.144;2022-09-17T06:16:48;12.30;97.20
2653;DHT22;1336;48.692;9.144;2022-09-17T06:17:40;12.30;97.20
2653;DHT22;1336;48.692;9.144;2022-09-17T06:18:32;12.30;97.20
2653;DHT22;1336;48.692;9.144;2022-09-17T06:19:23;12.30;97.20
2653;DHT22;1336;48.692;9.144;2022-09-17T06:20:15;12.30;97.20
2653;DHT22;1336;48.692;9.144;2022-09-17T06:21:06;12.30;97.20
2653;DHT22;1336;48.692;9.144;2022-09-17T06:21:57;12.30;97.20
2653;DHT22;1336;48.692;9.144;2022-09-17T06:22:48;12.30;97.20
2653;DHT22;1336;48.692;9.144;2022-09-17T06:23:40;12.40;97.20
2653;DHT22;1336;48.692;9.144;2022-09-17T06:24:32;12.40;97.20
2653;DHT22;1336;48.692;9.144;2022-09-17T06:25:25;12.40;97.20
2653;DHT22;1336;48.692;9.144;2022-09-17T06:26:16;12.40;97.20
2653;DHT22;1336;48.692;9.144;2022-09-17T06:27:08;12.50;97.20
2653;DHT22;1336;48.692;9.144;2022-09-17T06:28:00;12.50;97.20
2653;DHT22;1336;48.692;9.144;2022-09-17T06:28:52;12.50;97.20
2653;DHT22;1336;48.692;9.144;2022-09-17T06:29:43;12.50;97.20
2653;DHT22;1336;48.692;9.144;2022-09-17T06:30:35;12.50;97.20
2653;DHT22;1336;48.692;9.144;2022-09-17T06:31:26;12.50;97.20
2653;DHT22;1336;48.692;9.144;2022-09-17T06:32:18;12.50;97.20
2653;DHT22;1336;48.692;9.144;2022-09-17T06:33:10;12.50;97.20
2653;DHT22;1336;48.692;9.144;2022-09-17T06:34:02;12.50;97.20
2653;DHT22;1336;48.692;9.144;2022-09-17T06:34:55;12.50;97.20
2653;DHT22;1336;48.692;9.144;2022-09-17T06:35:47;12.50;97.20
2653;DHT22;1336;48.692;9.144;2022-09-17T06:36:38;12.60;97.20
2653;DHT22;1336;48.692;9.144;2022-09-17T06:37:31;12.60;97.20
2653;DHT22;1336;48.692;9.144;2022-09-17T06:38:22;12.60;97.20
2653;DHT22;1336;48.692;9.144;2022-09-17T06:39:14;12.60;97.20
2653;DHT22;1336;48.692;9.144;2022-09-17T06:40:06;12.60;97.20
2653;DHT22;1336;48.692;9.144;2022-09-17T06:40:58;12.60;97.20
2653;DHT22;1336;48.692;9.144;2022-09-17T06:41:48;12.60;97.20
2653;DHT22;1336;48.692;9.144;2022-09-17T06:42:40;12.60;97.20
2653;DHT22;1336;48.692;9.144;2022-09-17T06:43:32;12.60;97.20
2653;DHT22;1336;48.692;9.144;2022-09-17T06:44:23;12.60;97.20
2653;DHT22;1336;48.692;9.144;2022-09-17T06:45:14;12.60;97.20
2653;DHT22;1336;48.692;9.144;2022-09-17T06:46:06;12.60;97.20
2653;DHT22;1336;48.692;9.144;2022-09-17T06:46:58;12.60;97.20
2653;DHT22;1336;48.692;9.144;2022-09-17T06:47:50;12.60;97.20
2653;DHT22;1336;48.692;9.144;2022-09-17T06:48:42;12.60;97.20
2653;DHT22;1336;48.692;9.144;2022-09-17T06:49:34;12.60;97.20
2653;DHT22;1336;48.692;9.144;2022-09-17T06:50:24;12.60;97.20
2653;DHT22;1336;48.692;9.144;2022-09-17T06:51:16;12.70;97.20
2653;DHT22;1336;48.692;9.144;2022-09-17T06:52:07;12.70;97.20
2653;DHT22;1336;48.692;9.144;2022-09-17T06:52:58;12.70;97.20
2653;DHT22;1336;48.692;9.144;2022-09-17T06:53:49;12.70;97.20
2653;DHT22;1336;48.692;9.144;2022-09-17T06:54:41;12.70;97.20
2653;DHT22;1336;48.692;9.144;2022-09-17T06:55:33;12.70;97.20
2653;DHT22;1336;48.692;9.144;2022-09-17T06:56:24;12.70;97.20
2653;DHT22;1336;48.692;9.144;2022-09-17T06:57:15;12.70;97.20
2653;DHT22;1336;48.692;9.144;2022-09-17T06:58:07;12.70;97.20
2653;DHT22;1336;48.692;9.144;2022-09-17T06:58:58;12.80;97.20
2653;DHT22;1336;48.692;9.144;2022-09-17T06:59:49;12.80;97.20
2653;DHT22;1336;48.692;9.144;2022-09-17T07:00:41;12.80;97.20
2653;DHT22;1336;48.692;9.144;2022-09-17T07:01:33;12.80;97.20
2653;DHT22;1336;48.692;9.144;2022-09-17T07:02:24;12.90;97.20
2653;DHT22;1336;48.692;9.144;2022-09-17T07:03:15;12.90;97.20
2653;DHT22;1336;48.692;9.144;2022-09-17T07:04:07;12.90;97.20
2653;DHT22;1336;48.692;9.144;2022-09-17T07:04:59;12.90;97.20
2653;DHT22;1336;48.692;9.144;2022-09-17T07:05:50;12.90;97.20
2653;DHT22;1336;48.692;9.144;2022-09-17T07:06:42;12.90;97.20
2653;DHT22;1336;48.692;9.144;2022-09-17T07:07:33;12.90;97.20
2653;DHT22;1336;48.692;9.144;2022-09-17T07:08:25;12.90;97.20
2653;DHT22;1336;48.692;9.144;2022-09-17T07:09:16;12.80;97.20
2653;DHT22;1336;48.692;9.144;2022-09-17T07:10:08;12.80;97.20
2653;DHT22;1336;48.692;9.144;2022-09-17T07:10:59;12.70;97.20
2653;DHT22;1336;48.692;9.144;2022-09-17T07:11:50;12.70;97.20
2653;DHT22;1336;48.692;9.144;2022-09-17T07:12:41;12.70;97.20
2653;DHT22;1336;48.692;9.144;2022-09-17T07:13:33;12.70;97.20
2653;DHT22;1336;48.692;9.144;2022-09-17T07:14:24;12.70;97.20
2653;DHT22;1336;48.692;9.144;2022-09-17T07:15:15;12.70;97.20
2653;DHT22;1336;48.692;9.144;2022-09-17T07:16:06;12.70;97.20
2653;DHT22;1336;48.692;9.144;2022-09-17T07:16:58;12.70;97.20
2653;DHT22;1336;48.692;9.144;2022-09-17T07:17:49;12.60;97.20
2653;DHT22;1336;48.692;9.144;2022-09-17T07:18:41;12.70;97.20
2653;DHT22;1336;48.692;9.144;2022-09-17T07:19:33;12.60;97.20
2653;DHT22;1336;48.692;9.144;2022-09-17T07:20:25;12.70;97.20
2653;DHT22;1336;48.692;9.144;2022-09-17T07:21:16;12.70;97.20
2653;DHT22;1336;48.692;9.144;2022-09-17T07:22:07;12.70;97.20
2653;DHT22;1336;48.692;9.144;2022-09-17T07:22:58;12.60;97.20
2653;DHT22;1336;48.692;9.144;2022-09-17T07:23:50;12.60;97.20
2653;DHT22;1336;48.692;9.144;2022-09-17T07:24:41;12.60;97.20
2653;DHT22;1336;48.692;9.144;2022-09-17T07:25:32;12.60;97.20
2653;DHT22;1336;48.692;9.144;2022-09-17T07:26:23;12.60;97.20
2653;DHT22;1336;48.692;9.144;2022-09-17T07:27:15;12.60;97.20
2653;DHT22;1336;48.692;9.144;2022-09-17T07:28:06;12.50;97.20
2653;DHT22;1336;48.692;9.144;2022-09-17T07:28:57;12.50;97.20
2653;DHT22;1336;48.692;9.144;2022-09-17T07:29:48;12.50;97.20
2653;DHT22;1336;48.692;9.144;2022-09-17T07:30:40;12.50;97.20
2653;DHT22;1336;48.692;9.144;2022-09-17T07:31:31;12.50;97.20
2653;DHT22;1336;48.692;9.144;2022-09-17T07:32:23;12.50;97.20
2653;DHT22;1336;48.692;9.144;2022-09-17T07:33:14;12.50;97.20
2653;DHT22;1336;48.692;9.144;2022-09-17T07:34:07;12.50;97.20
2653;DHT22;1336;48.692;9.144;2022-09-17T07:34:59;12.50;97.20
2653;DHT22;1336;48.692;9.144;2022-09-17T07:35:53;12.40;97.20
2653;DHT22;1336;48.692;9.144;2022-09-17T07:36:44;12.50;97.20
2653;DHT22;1336;48.692;9.144;2022-09-17T07:37:36;12.40;97.20
2653;DHT22;1336;48.692;9.144;2022-09-17T07:38:28;12.40;97.20
2653;DHT22;1336;48.692;9.144;2022-09-17T07:39:20;12.50;97.20
2653;DHT22;1336;48.692;9.144;2022-09-17T07:40:11;12.40;97.20
2653;DHT22;1336;48.692;9.144;2022-09-17T07:41:04;12.50;97.20
2653;DHT22;1336;48.692;9.144;2022-09-17T07:41:55;12.50;97.20
2653;DHT22;1336;48.692;9.144;2022-09-17T07:42:47;12.50;97.20
2653;DHT22;1336;48.692;9.144;2022-09-17T07:43:38;12.50;97.20
2653;DHT22;1336;48.692;9.144;2022-09-17T07:44:30;12.50;97.20
2653;DHT22;1336;48.692;9.144;2022-09-17T07:45:21;12.60;97.20
2653;DHT22;1336;48.692;9.144;2022-09-17T07:46:14;12.60;97.20
2653;DHT22;1336;48.692;9.144;2022-09-17T07:47:05;12.60;97.20
2653;DHT22;1336;48.692;9.144;2022-09-17T07:47:57;12.60;97.20
2653;DHT22;1336;48.692;9.144;2022-09-17T07:48:48;12.60;97.20
2653;DHT22;1336;48.692;9.144;2022-09-17T07:49:41;12.60;97.20
2653;DHT22;1336;48.692;9.144;2022-09-17T07:50:33;12.60;97.20
2653;DHT22;1336;48.692;9.144;2022-09-17T07:51:25;12.60;97.20
2653;DHT22;1336;48.692;9.144;2022-09-17T07:52:17;12.60;97.20
2653;DHT22;1336;48.692;9.144;2022-09-17T07:53:09;12.60;97.20
2653;DHT22;1336;48.692;9.144;2022-09-17T07:54:00;12.60;97.20
2653;DHT22;1336;48.692;9.144;2022-09-17T07:54:51;12.60;97.20
2653;DHT22;1336;48.692;9.144;2022-09-17T07:55:45;12.60;97.20
2653;DHT22;1336;48.692;9.144;2022-09-17T07:56:41;12.70;97.20
2653;DHT22;1336;48.692;9.144;2022-09-17T07:57:31;12.60;97.20
2653;DHT22;1336;48.692;9.144;2022-09-17T07:58:27;12.70;97.20
2653;DHT22;1336;48.692;9.144;2022-09-17T07:59:18;12.60;97.20
2653;DHT22;1336;48.692;9.144;2022-09-17T08:00:12;12.60;97.20
2653;DHT22;1336;48.692;9.144;2022-09-17T08:01:05;12.60;97.20
2653;DHT22;1336;48.692;9.144;2022-09-17T08:01:57;12.60;97.20
2653;DHT22;1336;48.692;9.144;2022-09-17T08:02:52;12.60;97.20
2653;DHT22;1336;48.692;9.144;2022-09-17T08:03:47;12.60;97.20
2653;DHT22;1336;48.692;9.144;2022-09-17T08:04:40;12.60;97.20
2653;DHT22;1336;48.692;9.144;2022-09-17T08:05:34;12.60;97.20
2653;DHT22;1336;48.692;9.144;2022-09-17T08:06:26;12.60;97.20
2653;DHT22;1336;48.692;9.144;2022-09-17T08:07:18;12.60;97.20
2653;DHT22;1336;48.692;9.144;2022-09-17T08:08:09;12.60;97.20
2653;DHT22;1336;48.692;9.144;2022-09-17T08:09:00;12.60;97.20
2653;DHT22;1336;48.692;9.144;2022-09-17T08:09:51;12.60;97.20
2653;DHT22;1336;48.692;9.144;2022-09-17T08:10:43;12.60;97.20
2653;DHT22;1336;48.692;9.144;2022-09-17T08:11:33;12.60;97.20
2653;DHT22;1336;48.692;9.144;2022-09-17T08:12:26;12.60;97.20
2653;DHT22;1336;48.692;9.144;2022-09-17T08:13:16;12.60;97.20
2653;DHT22;1336;48.692;9.144;2022-09-17T08:14:09;12.60;97.20
2653;DHT22;1336;48.692;9.144;2022-09-17T08:15:00;12.60;97.20
2653;DHT22;1336;48.692;9.144;2022-09-17T08:15:52;12.60;97.20
2653;DHT22;1336;48.692;9.144;2022-09-17T08:16:47;12.60;97.20
2653;DHT22;1336;48.692;9.144;2022-09-17T08:17:42;12.60;97.20
2653;DHT22;1336;48.692;9.144;2022-09-17T08:18:33;12.50;97.20
2653;DHT22;1336;48.692;9.144;2022-09-17T08:19:25;12.50;97.20
2653;DHT22;1336;48.692;9.144;2022-09-17T08:20:19;12.50;97.20
2653;DHT22;1336;48.692;9.144;2022-09-17T08:21:14;12.50;97.20
2653;DHT22;1336;48.692;9.144;2022-09-17T08:22:06;12.50;97.20
2653;DHT22;1336;48.692;9.144;2022-09-17T08:22:58;12.50;97.20
2653;DHT22;1336;48.692;9.144;2022-09-17T08:23:49;12.50;97.20
2653;DHT22;1336;48.692;9.144;2022-09-17T08:24:41;12.50;97.20
2653;DHT22;1336;48.692;9.144;2022-09-17T08:25:32;12.50;97.20
2653;DHT22;1336;48.692;9.144;2022-09-17T08:26:23;12.50;97.20
2653;DHT22;1336;48.692;9.144;2022-09-17T08:27:14;12.50;97.20
2653;DHT22;1336;48.692;9.144;2022-09-17T08:28:06;12.50;97.20
2653;DHT22;1336;48.692;9.144;2022-09-17T08:28:57;12.50;97.20
2653;DHT22;1336;48.692;9.144;2022-09-17T08:29:48;12.50;97.20
2653;DHT22;1336;48.692;9.144;2022-09-17T08:30:39;12.50;97.20
2653;DHT22;1336;48.692;9.144;2022-09-17T08:31:31;12.50;97.20
2653;DHT22;1336;48.692;9.144;2022-09-17T08:32:22;12.50;97.20
2653;DHT22;1336;48.692;9.144;2022-09-17T08:33:14;12.50;97.20
2653;DHT22;1336;48.692;9.144;2022-09-17T08:34:06;12.50;97.20
2653;DHT22;1336;48.692;9.144;2022-09-17T08:34:59;12.50;97.20
2653;DHT22;1336;48.692;9.144;2022-09-17T08:35:50;12.50;97.20
2653;DHT22;1336;48.692;9.144;2022-09-17T08:36:44;12.50;97.20
2653;DHT22;1336;48.692;9.144;2022-09-17T08:37:35;12.50;97.20
2653;DHT22;1336;48.692;9.144;2022-09-17T08:38:28;12.50;97.20
2653;DHT22;1336;48.692;9.144;2022-09-17T08:39:19;12.50;97.20
2653;DHT22;1336;48.692;9.144;2022-09-17T08:40:15;12.50;97.20
2653;DHT22;1336;48.692;9.144;2022-09-17T08:41:18;12.50;97.20
2653;DHT22;1336;48.692;9.144;2022-09-17T08:42:18;12.50;97.20
2653;DHT22;1336;48.692;9.144;2022-09-17T08:43:15;12.60;97.20
2653;DHT22;1336;48.692;9.144;2022-09-17T08:44:17;12.60;97.20
2653;DHT22;1336;48.692;9.144;2022-09-17T08:45:12;12.70;97.20
2653;DHT22;1336;48.692;9.144;2022-09-17T08:46:09;12.70;97.20
2653;DHT22;1336;48.692;9.144;2022-09-17T08:47:03;12.80;97.20
2653;DHT22;1336;48.692;9.144;2022-09-17T08:48:01;12.80;97.20
2653;DHT22;1336;48.692;9.144;2022-09-17T08:49:05;12.80;97.20
2653;DHT22;1336;48.692;9.144;2022-09-17T08:50:14;12.90;97.20
2653;DHT22;1336;48.692;9.144;2022-09-17T08:51:13;12.90;97.20
2653;DHT22;1336;48.692;9.144;2022-09-17T08:52:30;13.00;97.20
2653;DHT22;1336;48.692;9.144;2022-09-17T08:53:38;13.00;97.20
2653;DHT22;1336;48.692;9.144;2022-09-17T08:54:34;13.00;97.20
2653;DHT22;1336;48.692;9.144;2022-09-17T08:55:33;13.10;97.20
2653;DHT22;1336;48.692;9.144;2022-09-17T08:56:29;13.10;97.20
2653;DHT22;1336;48.692;9.144;2022-09-17T08:57:28;13.10;97.20
2653;DHT22;1336;48.692;9.144;2022-09-17T08:58:41;13.10;97.20
2653;DHT22;1336;48.692;9.144;2022-09-17T08:59:36;13.10;97.20
2653;DHT22;1336;48.692;9.144;2022-09-17T09:00:32;13.10;97.20
2653;DHT22;1336;48.692;9.144;2022-09-17T09:01:33;13.10;97.20
2653;DHT22;1336;48.692;9.144;2022-09-17T09:02:36;13.20;97.20
2653;DHT22;1336;48.692;9.144;2022-09-17T09:03:42;13.20;97.20
2653;DHT22;1336;48.692;9.144;2022-09-17T09:04:48;13.20;97.20
2653;DHT22;1336;48.692;9.144;2022-09-17T09:05:45;13.30;97.20
2653;DHT22;1336;48.692;9.144;2022-09-17T09:06:43;13.30;97.20
2653;DHT22;1336;48.692;9.144;2022-09-17T09:07:40;13.40;97.20
2653;DHT22;1336;48.692;9.144;2022-09-17T09:08:36;13.50;97.20
2653;DHT22;1336;48.692;9.144;2022-09-17T09:09:34;13.60;97.20
2653;DHT22;1336;48.692;9.144;2022-09-17T09:10:30;13.80;97.20
2653;DHT22;1336;48.692;9.144;2022-09-17T09:11:25;13.90;97.20
2653;DHT22;1336;48.692;9.144;2022-09-17T09:12:23;14.00;97.20
2653;DHT22;1336;48.692;9.144;2022-09-17T09:13:16;14.10;97.20
2653;DHT22;1336;48.692;9.144;2022-09-17T09:14:15;14.20;97.20
2653;DHT22;1336;48.692;9.144;2022-09-17T09:15:29;14.30;97.20
2653;DHT22;1336;48.692;9.144;2022-09-17T09:16:24;14.40;97.20
2653;DHT22;1336;48.692;9.144;2022-09-17T09:17:17;14.50;97.20
2653;DHT22;1336;48.692;9.144;2022-09-17T09:18:16;14.60;97.20
2653;DHT22;1336;48.692;9.144;2022-09-17T09:19:16;14.60;97.20
2653;DHT22;1336;48.692;9.144;2022-09-17T09:20:16;14.70;97.20
2653;DHT22;1336;48.692;9.144;2022-09-17T09:21:19;14.70;97.20
2653;DHT22;1336;48.692;9.144;2022-09-17T09:23:36;14.70;97.20
2653;DHT22;1336;48.692;9.144;2022-09-17T09:24:39;14.60;97.20
2653;DHT22;1336;48.692;9.144;2022-09-17T09:25:38;14.50;97.20
2653;DHT22;1336;48.692;9.144;2022-09-17T09:26:38;14.40;97.20
2653;DHT22;1336;48.692;9.144;2022-09-17T09:27:35;14.40;97.20
2653;DHT22;1336;48.692;9.144;2022-09-17T09:28:38;14.40;97.20
2653;DHT22;1336;48.692;9.144;2022-09-17T09:29:39;14.40;97.20
2653;DHT22;1336;48.692;9.144;2022-09-17T09:30:41;14.40;97.20
2653;DHT22;1336;48.692;9.144;2022-09-17T09:32:56;14.40;97.20
2653;DHT22;1336;48.692;9.144;2022-09-17T09:33:49;14.40;97.20
2653;DHT22;1336;48.692;9.144;2022-09-17T09:34:41;14.50;97.20
2653;DHT22;1336;48.692;9.144;2022-09-17T09:35:35;14.50;97.20
2653;DHT22;1336;48.692;9.144;2022-09-17T09:36:27;14.60;97.20
2653;DHT22;1336;48.692;9.144;2022-09-17T09:37:23;14.60;97.20
2653;DHT22;1336;48.692;9.144;2022-09-17T09:38:21;14.70;97.20
2653;DHT22;1336;48.692;9.144;2022-09-17T09:39:20;14.80;97.20
2653;DHT22;1336;48.692;9.144;2022-09-17T09:40:22;14.90;97.20
2653;DHT22;1336;48.692;9.144;2022-09-17T09:41:21;15.00;97.20
2653;DHT22;1336;48.692;9.144;2022-09-17T09:42:21;15.00;97.20
2653;DHT22;1336;48.692;9.144;2022-09-17T09:43:19;15.10;97.20
2653;DHT22;1336;48.692;9.144;2022-09-17T09:44:12;15.10;97.20
2653;DHT22;1336;48.692;9.144;2022-09-17T09:45:12;15.00;97.20
2653;DHT22;1336;48.692;9.144;2022-09-17T09:46:27;15.00;97.20
2653;DHT22;1336;48.692;9.144;2022-09-17T09:47:48;14.90;97.20
2653;DHT22;1336;48.692;9.144;2022-09-17T09:48:51;14.80;97.20
2653;DHT22;1336;48.692;9.144;2022-09-17T09:49:57;14.80;97.20
2653;DHT22;1336;48.692;9.144;2022-09-17T09:51:06;14.70;97.20
2653;DHT22;1336;48.692;9.144;2022-09-17T09:52:06;14.70;97.20
2653;DHT22;1336;48.692;9.144;2022-09-17T09:53:08;14.80;97.20
2653;DHT22;1336;48.692;9.144;2022-09-17T09:54:14;14.70;97.20
2653;DHT22;1336;48.692;9.144;2022-09-17T09:55:22;14.80;97.20
2653;DHT22;1336;48.692;9.144;2022-09-17T09:56:32;14.80;97.20
2653;DHT22;1336;48.692;9.144;2022-09-17T09:57:34;14.70;97.20
2653;DHT22;1336;48.692;9.144;2022-09-17T09:58:33;14.70;97.20
2653;DHT22;1336;48.692;9.144;2022-09-17T09:59:25;14.60;97.20
2653;DHT22;1336;48.692;9.144;2022-09-17T10:00:26;14.60;97.20
2653;DHT22;1336;48.692;9.144;2022-09-17T10:01:19;14.60;97.20
2653;DHT22;1336;48.692;9.144;2022-09-17T10:02:10;14.60;97.20
2653;DHT22;1336;48.692;9.144;2022-09-17T10:03:18;14.60;97.20
2653;DHT22;1336;48.692;9.144;2022-09-17T10:04:16;14.60;97.20
2653;DHT22;1336;48.692;9.144;2022-09-17T10:05:07;14.70;97.20
2653;DHT22;1336;48.692;9.144;2022-09-17T10:06:02;14.80;97.20
2653;DHT22;1336;48.692;9.144;2022-09-17T10:06:58;14.80;97.20
2653;DHT22;1336;48.692;9.144;2022-09-17T10:07:52;14.90;97.20
2653;DHT22;1336;48.692;9.144;2022-09-17T10:09:10;15.00;97.20
2653;DHT22;1336;48.692;9.144;2022-09-17T10:10:08;15.10;97.20
2653;DHT22;1336;48.692;9.144;2022-09-17T10:11:03;15.10;97.20
2653;DHT22;1336;48.692;9.144;2022-09-17T10:12:03;15.20;97.20
2653;DHT22;1336;48.692;9.144;2022-09-17T10:13:05;15.30;97.20
2653;DHT22;1336;48.692;9.144;2022-09-17T10:14:13;15.30;97.20
2653;DHT22;1336;48.692;9.144;2022-09-17T10:15:22;15.30;97.20
2653;DHT22;1336;48.692;9.144;2022-09-17T10:16:16;15.40;97.20
2653;DHT22;1336;48.692;9.144;2022-09-17T10:17:16;15.40;97.20
2653;DHT22;1336;48.692;9.144;2022-09-17T10:18:15;15.40;97.20
2653;DHT22;1336;48.692;9.144;2022-09-17T10:19:12;15.30;97.20
2653;DHT22;1336;48.692;9.144;2022-09-17T10:20:13;15.30;97.20
2653;DHT22;1336;48.692;9.144;2022-09-17T10:21:04;15.30;97.20
2653;DHT22;1336;48.692;9.144;2022-09-17T10:21:55;15.30;97.20
2653;DHT22;1336;48.692;9.144;2022-09-17T10:22:47;15.20;97.20
2653;DHT22;1336;48.692;9.144;2022-09-17T10:23:42;15.20;97.20
2653;DHT22;1336;48.692;9.144;2022-09-17T10:24:33;15.20;97.20
2653;DHT22;1336;48.692;9.144;2022-09-17T10:25:28;15.20;97.20
2653;DHT22;1336;48.692;9.144;2022-09-17T10:26:24;15.10;97.20
2653;DHT22;1336;48.692;9.144;2022-09-17T10:27:18;15.10;97.20
2653;DHT22;1336;48.692;9.144;2022-09-17T10:28:35;15.10;97.20
2653;DHT22;1336;48.692;9.144;2022-09-17T10:29:30;15.10;97.20
2653;DHT22;1336;48.692;9.144;2022-09-17T10:30:21;15.10;97.20
2653;DHT22;1336;48.692;9.144;2022-09-17T10:31:13;15.10;97.20
2653;DHT22;1336;48.692;9.144;2022-09-17T10:32:05;15.10;97.20
2653;DHT22;1336;48.692;9.144;2022-09-17T10:33:15;15.10;97.20
2653;DHT22;1336;48.692;9.144;2022-09-17T10:34:18;15.20;97.20
2653;DHT22;1336;48.692;9.144;2022-09-17T10:35:25;15.20;97.20
2653;DHT22;1336;48.692;9.144;2022-09-17T10:36:35;15.30;97.20
2653;DHT22;1336;48.692;9.144;2022-09-17T10:38:42;15.30;97.20
2653;DHT22;1336;48.692;9.144;2022-09-17T10:39:35;15.40;97.20
2653;DHT22;1336;48.692;9.144;2022-09-17T10:40:32;15.50;97.20
2653;DHT22;1336;48.692;9.144;2022-09-17T10:41:25;15.60;97.20
2653;DHT22;1336;48.692;9.144;2022-09-17T10:42:17;15.70;97.20
2653;DHT22;1336;48.692;9.144;2022-09-17T10:43:20;15.90;97.20
2653;DHT22;1336;48.692;9.144;2022-09-17T10:44:16;16.00;97.20
2653;DHT22;1336;48.692;9.144;2022-09-17T10:45:22;16.10;97.20
2653;DHT22;1336;48.692;9.144;2022-09-17T10:46:17;16.30;97.20
2653;DHT22;1336;48.692;9.144;2022-09-17T10:47:13;16.30;97.20
2653;DHT22;1336;48.692;9.144;2022-09-17T10:48:13;16.40;97.20
2653;DHT22;1336;48.692;9.144;2022-09-17T10:49:09;16.40;97.20
2653;DHT22;1336;48.692;9.144;2022-09-17T10:50:05;16.40;97.20
2653;DHT22;1336;48.692;9.144;2022-09-17T10:50:58;16.40;97.20
2653;DHT22;1336;48.692;9.144;2022-09-17T10:52:07;16.40;97.20
2653;DHT22;1336;48.692;9.144;2022-09-17T10:53:02;16.40;97.20
2653;DHT22;1336;48.692;9.144;2022-09-17T10:54:15;16.50;97.20
2653;DHT22;1336;48.692;9.144;2022-09-17T10:55:17;16.60;97.20
2653;DHT22;1336;48.692;9.144;2022-09-17T10:56:18;16.60;97.20
2653;DHT22;1336;48.692;9.144;2022-09-17T10:57:17;16.70;97.20
2653;DHT22;1336;48.692;9.144;2022-09-17T10:58:23;16.70;97.20
2653;DHT22;1336;48.692;9.144;2022-09-17T10:59:37;16.70;97.20